Schedule Details


Flight Number: CTN6660
Departure: Franjo Tudman (LDZA) at 10:35
Arrival: Cilipi (LDDU) at 11:40
Route: TEBLI L187 EVTON Y128 TIKSA L607 NERRA

Weather Information
LDZA 191200Z VRB06KT CAVOK 12/M02 Q1019 NOSIG
LDDU 191200Z 17010KT 140V210 9999 FEW018 SCT043 13/08 Q1018 NOSIG
Schedule Frequency

Route Map